sensor_id;sensor_type;location;lat;lon;timestamp;P1;durP1;ratioP1;P2;durP2;ratioP2
2848;SDS011;59355;52.416;13.412;2023-03-03T00:01:26;32.67;;;23.07;;
2848;SDS011;59355;52.416;13.412;2023-03-03T00:03:52;36.33;;;23.50;;
2848;SDS011;59355;52.416;13.412;2023-03-03T00:06:18;41.87;;;25.03;;
2848;SDS011;59355;52.416;13.412;2023-03-03T00:08:43;38.43;;;24.00;;
2848;SDS011;59355;52.416;13.412;2023-03-03T00:11:09;37.40;;;23.47;;
2848;SDS011;59355;52.416;13.412;2023-03-03T00:13:40;32.40;;;21.53;;
2848;SDS011;59355;52.416;13.412;2023-03-03T00:16:21;41.87;;;25.10;;
2848;SDS011;59355;52.416;13.412;2023-03-03T00:18:50;36.67;;;22.50;;
2848;SDS011;59355;52.416;13.412;2023-03-03T00:21:26;38.30;;;24.53;;
2848;SDS011;59355;52.416;13.412;2023-03-03T00:24:18;39.30;;;26.03;;
2848;SDS011;59355;52.416;13.412;2023-03-03T00:29:29;42.97;;;27.33;;
2848;SDS011;59355;52.416;13.412;2023-03-03T00:31:58;49.57;;;29.30;;
2848;SDS011;59355;52.416;13.412;2023-03-03T00:34:27;42.73;;;28.10;;
2848;SDS011;59355;52.416;13.412;2023-03-03T00:36:55;49.03;;;26.30;;
2848;SDS011;59355;52.416;13.412;2023-03-03T00:41:51;38.90;;;26.10;;
2848;SDS011;59355;52.416;13.412;2023-03-03T00:44:39;44.00;;;27.37;;
2848;SDS011;59355;52.416;13.412;2023-03-03T00:49:52;42.47;;;25.87;;
2848;SDS011;59355;52.416;13.412;2023-03-03T00:52:39;42.43;;;28.17;;
2848;SDS011;59355;52.416;13.412;2023-03-03T00:55:09;43.33;;;27.53;;
2848;SDS011;59355;52.416;13.412;2023-03-03T00:57:34;46.27;;;30.07;;
2848;SDS011;59355;52.416;13.412;2023-03-03T01:00:00;43.00;;;28.10;;
2848;SDS011;59355;52.416;13.412;2023-03-03T01:02:25;44.27;;;27.77;;
2848;SDS011;59355;52.416;13.412;2023-03-03T01:04:51;41.97;;;27.43;;
2848;SDS011;59355;52.416;13.412;2023-03-03T01:07:17;39.00;;;25.77;;
2848;SDS011;59355;52.416;13.412;2023-03-03T01:09:43;37.70;;;24.47;;
2848;SDS011;59355;52.416;13.412;2023-03-03T01:12:08;38.53;;;25.87;;
2848;SDS011;59355;52.416;13.412;2023-03-03T01:14:34;35.03;;;22.63;;
2848;SDS011;59355;52.416;13.412;2023-03-03T01:17:00;39.57;;;26.77;;
2848;SDS011;59355;52.416;13.412;2023-03-03T01:19:25;40.47;;;27.20;;
2848;SDS011;59355;52.416;13.412;2023-03-03T01:21:50;42.23;;;26.67;;
2848;SDS011;59355;52.416;13.412;2023-03-03T01:24:16;38.27;;;25.60;;
2848;SDS011;59355;52.416;13.412;2023-03-03T01:26:41;40.07;;;25.90;;
2848;SDS011;59355;52.416;13.412;2023-03-03T01:29:06;33.57;;;24.67;;
2848;SDS011;59355;52.416;13.412;2023-03-03T01:31:32;38.40;;;25.80;;
2848;SDS011;59355;52.416;13.412;2023-03-03T01:33:57;33.90;;;22.80;;
2848;SDS011;59355;52.416;13.412;2023-03-03T01:36:23;34.23;;;24.37;;
2848;SDS011;59355;52.416;13.412;2023-03-03T01:38:49;33.80;;;23.40;;
2848;SDS011;59355;52.416;13.412;2023-03-03T01:41:14;44.20;;;25.30;;
2848;SDS011;59355;52.416;13.412;2023-03-03T01:43:44;36.03;;;24.57;;
2848;SDS011;59355;52.416;13.412;2023-03-03T01:48:48;36.57;;;23.03;;
2848;SDS011;59355;52.416;13.412;2023-03-03T01:51:22;37.63;;;23.93;;
2848;SDS011;59355;52.416;13.412;2023-03-03T01:53:53;32.07;;;22.13;;
2848;SDS011;59355;52.416;13.412;2023-03-03T01:56:20;31.80;;;22.77;;
2848;SDS011;59355;52.416;13.412;2023-03-03T01:58:45;32.50;;;23.00;;
2848;SDS011;59355;52.416;13.412;2023-03-03T02:01:14;29.87;;;19.60;;
2848;SDS011;59355;52.416;13.412;2023-03-03T02:03:43;29.03;;;21.40;;
2848;SDS011;59355;52.416;13.412;2023-03-03T02:06:10;35.20;;;22.93;;
2848;SDS011;59355;52.416;13.412;2023-03-03T02:08:38;29.23;;;21.17;;
2848;SDS011;59355;52.416;13.412;2023-03-03T02:11:08;32.03;;;20.97;;
2848;SDS011;59355;52.416;13.412;2023-03-03T02:13:34;28.93;;;20.80;;
2848;SDS011;59355;52.416;13.412;2023-03-03T02:15:59;30.67;;;20.47;;
2848;SDS011;59355;52.416;13.412;2023-03-03T02:18:25;30.50;;;20.63;;
2848;SDS011;59355;52.416;13.412;2023-03-03T02:21:04;30.53;;;20.73;;
2848;SDS011;59355;52.416;13.412;2023-03-03T02:23:40;33.53;;;21.40;;
2848;SDS011;59355;52.416;13.412;2023-03-03T02:26:22;35.70;;;22.70;;
2848;SDS011;59355;52.416;13.412;2023-03-03T02:28:48;33.00;;;20.50;;
2848;SDS011;59355;52.416;13.412;2023-03-03T02:31:15;29.57;;;20.40;;
2848;SDS011;59355;52.416;13.412;2023-03-03T02:33:43;33.00;;;22.73;;
2848;SDS011;59355;52.416;13.412;2023-03-03T02:36:14;26.97;;;19.30;;
2848;SDS011;59355;52.416;13.412;2023-03-03T02:41:35;31.20;;;21.00;;
2848;SDS011;59355;52.416;13.412;2023-03-03T02:44:08;33.90;;;23.70;;
2848;SDS011;59355;52.416;13.412;2023-03-03T02:46:38;34.77;;;22.70;;
2848;SDS011;59355;52.416;13.412;2023-03-03T02:49:05;37.40;;;24.13;;
2848;SDS011;59355;52.416;13.412;2023-03-03T02:51:32;37.70;;;25.97;;
2848;SDS011;59355;52.416;13.412;2023-03-03T02:53:57;32.63;;;22.57;;
2848;SDS011;59355;52.416;13.412;2023-03-03T02:56:23;35.57;;;23.13;;
2848;SDS011;59355;52.416;13.412;2023-03-03T02:58:48;36.83;;;23.50;;
2848;SDS011;59355;52.416;13.412;2023-03-03T03:01:13;35.50;;;24.60;;
2848;SDS011;59355;52.416;13.412;2023-03-03T03:03:39;42.80;;;25.87;;
2848;SDS011;59355;52.416;13.412;2023-03-03T03:06:04;35.93;;;23.87;;
2848;SDS011;59355;52.416;13.412;2023-03-03T03:08:30;39.73;;;25.40;;
2848;SDS011;59355;52.416;13.412;2023-03-03T03:10:55;36.57;;;24.07;;
2848;SDS011;59355;52.416;13.412;2023-03-03T03:13:23;36.50;;;24.00;;
2848;SDS011;59355;52.416;13.412;2023-03-03T03:15:50;37.00;;;23.77;;
2848;SDS011;59355;52.416;13.412;2023-03-03T03:18:15;33.83;;;23.87;;
2848;SDS011;59355;52.416;13.412;2023-03-03T03:20:41;41.97;;;26.00;;
2848;SDS011;59355;52.416;13.412;2023-03-03T03:23:07;38.13;;;26.00;;
2848;SDS011;59355;52.416;13.412;2023-03-03T03:25:32;33.73;;;22.70;;
2848;SDS011;59355;52.416;13.412;2023-03-03T03:27:58;41.33;;;25.27;;
2848;SDS011;59355;52.416;13.412;2023-03-03T03:30:23;36.63;;;24.50;;
2848;SDS011;59355;52.416;13.412;2023-03-03T03:32:48;38.90;;;23.07;;
2848;SDS011;59355;52.416;13.412;2023-03-03T03:35:14;37.60;;;25.70;;
2848;SDS011;59355;52.416;13.412;2023-03-03T03:37:41;43.70;;;26.57;;
2848;SDS011;59355;52.416;13.412;2023-03-03T03:40:06;41.33;;;25.53;;
2848;SDS011;59355;52.416;13.412;2023-03-03T03:42:32;40.37;;;26.87;;
2848;SDS011;59355;52.416;13.412;2023-03-03T03:44:57;41.67;;;26.37;;
2848;SDS011;59355;52.416;13.412;2023-03-03T03:47:22;47.60;;;28.60;;
2848;SDS011;59355;52.416;13.412;2023-03-03T03:49:48;43.57;;;25.80;;
2848;SDS011;59355;52.416;13.412;2023-03-03T03:52:13;44.80;;;26.40;;
2848;SDS011;59355;52.416;13.412;2023-03-03T03:54:38;44.10;;;28.00;;
2848;SDS011;59355;52.416;13.412;2023-03-03T03:57:04;43.70;;;26.10;;
2848;SDS011;59355;52.416;13.412;2023-03-03T03:59:29;44.47;;;26.70;;
2848;SDS011;59355;52.416;13.412;2023-03-03T04:01:55;44.43;;;28.13;;
2848;SDS011;59355;52.416;13.412;2023-03-03T04:04:20;44.10;;;26.53;;
2848;SDS011;59355;52.416;13.412;2023-03-03T04:06:45;46.10;;;29.33;;
2848;SDS011;59355;52.416;13.412;2023-03-03T04:09:11;48.20;;;27.43;;
2848;SDS011;59355;52.416;13.412;2023-03-03T04:11:36;48.83;;;27.67;;
2848;SDS011;59355;52.416;13.412;2023-03-03T04:14:01;46.50;;;29.10;;
2848;SDS011;59355;52.416;13.412;2023-03-03T04:16:27;44.70;;;28.60;;
2848;SDS011;59355;52.416;13.412;2023-03-03T04:18:52;49.50;;;26.17;;
2848;SDS011;59355;52.416;13.412;2023-03-03T04:21:17;46.97;;;26.70;;
2848;SDS011;59355;52.416;13.412;2023-03-03T04:23:43;43.90;;;28.40;;
2848;SDS011;59355;52.416;13.412;2023-03-03T04:26:08;47.17;;;27.93;;
2848;SDS011;59355;52.416;13.412;2023-03-03T04:28:34;44.13;;;28.20;;
2848;SDS011;59355;52.416;13.412;2023-03-03T04:30:59;46.03;;;26.10;;
2848;SDS011;59355;52.416;13.412;2023-03-03T04:33:25;51.97;;;27.47;;
2848;SDS011;59355;52.416;13.412;2023-03-03T04:35:50;48.10;;;26.97;;
2848;SDS011;59355;52.416;13.412;2023-03-03T04:38:16;51.53;;;25.73;;
2848;SDS011;59355;52.416;13.412;2023-03-03T04:40:41;42.87;;;26.83;;
2848;SDS011;59355;52.416;13.412;2023-03-03T04:43:07;45.70;;;27.43;;
2848;SDS011;59355;52.416;13.412;2023-03-03T04:45:33;44.10;;;26.90;;
2848;SDS011;59355;52.416;13.412;2023-03-03T04:47:58;47.60;;;27.05;;
2848;SDS011;59355;52.416;13.412;2023-03-03T04:50:23;48.10;;;27.27;;
2848;SDS011;59355;52.416;13.412;2023-03-03T04:52:49;52.90;;;27.17;;
2848;SDS011;59355;52.416;13.412;2023-03-03T04:55:14;51.63;;;25.80;;
2848;SDS011;59355;52.416;13.412;2023-03-03T04:57:40;50.80;;;27.90;;
2848;SDS011;59355;52.416;13.412;2023-03-03T05:00:06;44.37;;;24.80;;
2848;SDS011;59355;52.416;13.412;2023-03-03T05:02:32;48.27;;;25.33;;
2848;SDS011;59355;52.416;13.412;2023-03-03T05:04:57;48.60;;;27.30;;
2848;SDS011;59355;52.416;13.412;2023-03-03T05:07:22;55.57;;;29.13;;
2848;SDS011;59355;52.416;13.412;2023-03-03T05:09:48;45.87;;;24.17;;
2848;SDS011;59355;52.416;13.412;2023-03-03T05:12:13;50.60;;;25.90;;
2848;SDS011;59355;52.416;13.412;2023-03-03T05:14:39;44.00;;;23.37;;
2848;SDS011;59355;52.416;13.412;2023-03-03T05:17:04;39.83;;;22.27;;
2848;SDS011;59355;52.416;13.412;2023-03-03T05:19:30;49.17;;;23.93;;
2848;SDS011;59355;52.416;13.412;2023-03-03T05:21:55;46.43;;;23.23;;
2848;SDS011;59355;52.416;13.412;2023-03-03T05:24:21;43.33;;;21.73;;
2848;SDS011;59355;52.416;13.412;2023-03-03T05:26:47;36.50;;;21.60;;
2848;SDS011;59355;52.416;13.412;2023-03-03T05:29:13;45.73;;;23.10;;
2848;SDS011;59355;52.416;13.412;2023-03-03T05:31:38;39.87;;;20.93;;
2848;SDS011;59355;52.416;13.412;2023-03-03T05:34:03;43.67;;;23.00;;
2848;SDS011;59355;52.416;13.412;2023-03-03T05:36:29;37.57;;;21.13;;
2848;SDS011;59355;52.416;13.412;2023-03-03T05:38:54;37.07;;;20.53;;
2848;SDS011;59355;52.416;13.412;2023-03-03T05:41:19;39.63;;;21.90;;
2848;SDS011;59355;52.416;13.412;2023-03-03T05:43:45;43.30;;;22.37;;
2848;SDS011;59355;52.416;13.412;2023-03-03T05:46:11;43.37;;;21.77;;
2848;SDS011;59355;52.416;13.412;2023-03-03T05:48:36;39.10;;;21.83;;
2848;SDS011;59355;52.416;13.412;2023-03-03T05:51:01;42.63;;;20.80;;
2848;SDS011;59355;52.416;13.412;2023-03-03T05:53:27;44.70;;;22.00;;
2848;SDS011;59355;52.416;13.412;2023-03-03T05:55:53;37.33;;;21.37;;
2848;SDS011;59355;52.416;13.412;2023-03-03T05:58:18;40.07;;;22.13;;
2848;SDS011;59355;52.416;13.412;2023-03-03T06:00:43;38.77;;;22.17;;
2848;SDS011;59355;52.416;13.412;2023-03-03T06:03:09;42.93;;;22.77;;
2848;SDS011;59355;52.416;13.412;2023-03-03T06:05:34;41.73;;;21.43;;
2848;SDS011;59355;52.416;13.412;2023-03-03T06:07:59;34.47;;;21.10;;
2848;SDS011;59355;52.416;13.412;2023-03-03T06:10:25;37.63;;;21.13;;
2848;SDS011;59355;52.416;13.412;2023-03-03T06:12:50;35.10;;;19.50;;
2848;SDS011;59355;52.416;13.412;2023-03-03T06:15:16;34.43;;;19.50;;
2848;SDS011;59355;52.416;13.412;2023-03-03T06:17:41;37.33;;;19.00;;
2848;SDS011;59355;52.416;13.412;2023-03-03T06:20:07;40.60;;;23.33;;
2848;SDS011;59355;52.416;13.412;2023-03-03T06:22:32;35.97;;;20.27;;
2848;SDS011;59355;52.416;13.412;2023-03-03T06:24:58;39.57;;;20.87;;
2848;SDS011;59355;52.416;13.412;2023-03-03T06:27:23;35.10;;;19.53;;
2848;SDS011;59355;52.416;13.412;2023-03-03T06:29:48;34.17;;;19.20;;
2848;SDS011;59355;52.416;13.412;2023-03-03T06:32:14;37.30;;;20.50;;
2848;SDS011;59355;52.416;13.412;2023-03-03T06:34:39;38.00;;;21.40;;
2848;SDS011;59355;52.416;13.412;2023-03-03T06:37:04;33.60;;;20.23;;
2848;SDS011;59355;52.416;13.412;2023-03-03T06:39:30;39.57;;;21.10;;
2848;SDS011;59355;52.416;13.412;2023-03-03T06:41:55;40.83;;;19.60;;
2848;SDS011;59355;52.416;13.412;2023-03-03T06:44:20;37.33;;;19.60;;
2848;SDS011;59355;52.416;13.412;2023-03-03T06:46:46;40.00;;;20.07;;
2848;SDS011;59355;52.416;13.412;2023-03-03T06:49:11;38.63;;;18.37;;
2848;SDS011;59355;52.416;13.412;2023-03-03T06:51:37;35.23;;;19.20;;
2848;SDS011;59355;52.416;13.412;2023-03-03T06:54:13;35.53;;;19.47;;
2848;SDS011;59355;52.416;13.412;2023-03-03T06:56:40;37.13;;;18.73;;
2848;SDS011;59355;52.416;13.412;2023-03-03T06:59:13;31.57;;;19.40;;
2848;SDS011;59355;52.416;13.412;2023-03-03T07:01:40;29.90;;;19.40;;
2848;SDS011;59355;52.416;13.412;2023-03-03T07:04:48;31.80;;;18.97;;
2848;SDS011;59355;52.416;13.412;2023-03-03T07:06:59;36.73;;;18.20;;
2848;SDS011;59355;52.416;13.412;2023-03-03T07:09:31;34.13;;;19.73;;
2848;SDS011;59355;52.416;13.412;2023-03-03T07:11:59;32.87;;;19.37;;
2848;SDS011;59355;52.416;13.412;2023-03-03T07:14:27;33.10;;;17.77;;
2848;SDS011;59355;52.416;13.412;2023-03-03T07:16:57;33.03;;;17.53;;
2848;SDS011;59355;52.416;13.412;2023-03-03T07:19:28;31.83;;;17.70;;
2848;SDS011;59355;52.416;13.412;2023-03-03T07:21:55;27.60;;;16.13;;
2848;SDS011;59355;52.416;13.412;2023-03-03T07:24:28;27.50;;;16.33;;
2848;SDS011;59355;52.416;13.412;2023-03-03T07:27:08;28.73;;;17.20;;
2848;SDS011;59355;52.416;13.412;2023-03-03T07:29:36;32.60;;;15.97;;
2848;SDS011;59355;52.416;13.412;2023-03-03T07:32:05;30.03;;;15.70;;
2848;SDS011;59355;52.416;13.412;2023-03-03T07:34:47;27.47;;;17.43;;
2848;SDS011;59355;52.416;13.412;2023-03-03T07:37:16;33.73;;;17.90;;
2848;SDS011;59355;52.416;13.412;2023-03-03T07:39:53;30.73;;;17.20;;
2848;SDS011;59355;52.416;13.412;2023-03-03T07:44:49;45.90;;;18.83;;
2848;SDS011;59355;52.416;13.412;2023-03-03T07:47:20;33.50;;;16.57;;
2848;SDS011;59355;52.416;13.412;2023-03-03T07:49:47;36.73;;;19.27;;
2848;SDS011;59355;52.416;13.412;2023-03-03T07:52:19;29.73;;;18.93;;
2848;SDS011;59355;52.416;13.412;2023-03-03T07:54:53;38.33;;;20.03;;
2848;SDS011;59355;52.416;13.412;2023-03-03T08:00:01;36.37;;;18.40;;
2848;SDS011;59355;52.416;13.412;2023-03-03T08:02:57;40.73;;;19.57;;
2848;SDS011;59355;52.416;13.412;2023-03-03T08:05:34;43.13;;;20.07;;
2848;SDS011;59355;52.416;13.412;2023-03-03T08:10:54;35.30;;;19.93;;
2848;SDS011;59355;52.416;13.412;2023-03-03T08:13:27;40.80;;;20.53;;
2848;SDS011;59355;52.416;13.412;2023-03-03T08:16:01;35.40;;;19.40;;
2848;SDS011;59355;52.416;13.412;2023-03-03T08:18:33;36.07;;;19.90;;
2848;SDS011;59355;52.416;13.412;2023-03-03T08:21:01;32.27;;;17.10;;
2848;SDS011;59355;52.416;13.412;2023-03-03T08:23:27;33.80;;;19.20;;
2848;SDS011;59355;52.416;13.412;2023-03-03T08:25:52;33.60;;;17.97;;
2848;SDS011;59355;52.416;13.412;2023-03-03T08:28:18;30.83;;;17.70;;
2848;SDS011;59355;52.416;13.412;2023-03-03T08:30:44;33.97;;;18.60;;
2848;SDS011;59355;52.416;13.412;2023-03-03T08:33:10;34.27;;;17.40;;
2848;SDS011;59355;52.416;13.412;2023-03-03T08:35:36;30.63;;;16.17;;
2848;SDS011;59355;52.416;13.412;2023-03-03T08:38:02;31.23;;;16.43;;
2848;SDS011;59355;52.416;13.412;2023-03-03T08:40:28;26.00;;;17.20;;
2848;SDS011;59355;52.416;13.412;2023-03-03T08:42:53;24.80;;;15.90;;
2848;SDS011;59355;52.416;13.412;2023-03-03T08:45:19;26.30;;;14.53;;
2848;SDS011;59355;52.416;13.412;2023-03-03T08:47:44;25.67;;;15.50;;
2848;SDS011;59355;52.416;13.412;2023-03-03T08:50:09;24.23;;;14.07;;
2848;SDS011;59355;52.416;13.412;2023-03-03T08:52:35;22.90;;;13.90;;
2848;SDS011;59355;52.416;13.412;2023-03-03T08:55:00;25.30;;;13.83;;
2848;SDS011;59355;52.416;13.412;2023-03-03T08:57:26;26.67;;;14.70;;
2848;SDS011;59355;52.416;13.412;2023-03-03T08:59:51;26.73;;;14.87;;
2848;SDS011;59355;52.416;13.412;2023-03-03T09:02:16;22.87;;;13.23;;
2848;SDS011;59355;52.416;13.412;2023-03-03T09:04:42;21.73;;;12.93;;
2848;SDS011;59355;52.416;13.412;2023-03-03T09:07:07;21.60;;;11.63;;
2848;SDS011;59355;52.416;13.412;2023-03-03T09:09:32;22.40;;;13.10;;
2848;SDS011;59355;52.416;13.412;2023-03-03T09:11:58;19.87;;;13.07;;
2848;SDS011;59355;52.416;13.412;2023-03-03T09:14:29;23.37;;;13.20;;
2848;SDS011;59355;52.416;13.412;2023-03-03T09:16:55;19.63;;;11.37;;
2848;SDS011;59355;52.416;13.412;2023-03-03T09:19:25;22.23;;;13.33;;
2848;SDS011;59355;52.416;13.412;2023-03-03T09:21:57;22.43;;;13.63;;
2848;SDS011;59355;52.416;13.412;2023-03-03T09:24:29;21.90;;;14.23;;
2848;SDS011;59355;52.416;13.412;2023-03-03T09:26:55;22.37;;;13.37;;
2848;SDS011;59355;52.416;13.412;2023-03-03T09:29:24;19.77;;;12.03;;
2848;SDS011;59355;52.416;13.412;2023-03-03T09:31:53;19.77;;;12.93;;
2848;SDS011;59355;52.416;13.412;2023-03-03T09:34:33;19.87;;;11.90;;
2848;SDS011;59355;52.416;13.412;2023-03-03T09:39:52;13.83;;;9.73;;
2848;SDS011;59355;52.416;13.412;2023-03-03T09:42:22;15.77;;;9.90;;
2848;SDS011;59355;52.416;13.412;2023-03-03T09:45:05;15.87;;;11.10;;
2848;SDS011;59355;52.416;13.412;2023-03-03T09:48:03;18.63;;;11.90;;
2848;SDS011;59355;52.416;13.412;2023-03-03T09:53:57;17.73;;;10.03;;
2848;SDS011;59355;52.416;13.412;2023-03-03T09:56:33;19.53;;;11.77;;
2848;SDS011;59355;52.416;13.412;2023-03-03T09:59:03;15.60;;;11.00;;
2848;SDS011;59355;52.416;13.412;2023-03-03T10:04:19;16.40;;;12.03;;
2848;SDS011;59355;52.416;13.412;2023-03-03T10:06:55;18.10;;;11.43;;
2848;SDS011;59355;52.416;13.412;2023-03-03T10:12:35;16.20;;;10.80;;
2848;SDS011;59355;52.416;13.412;2023-03-03T10:15:26;17.50;;;10.53;;
2848;SDS011;59355;52.416;13.412;2023-03-03T10:18:19;16.47;;;11.40;;
2848;SDS011;59355;52.416;13.412;2023-03-03T10:21:03;15.03;;;9.70;;
2848;SDS011;59355;52.416;13.412;2023-03-03T10:23:40;14.73;;;10.60;;
2848;SDS011;59355;52.416;13.412;2023-03-03T10:29:07;14.43;;;10.13;;
2848;SDS011;59355;52.416;13.412;2023-03-03T10:31:43;17.00;;;10.50;;
2848;SDS011;59355;52.416;13.412;2023-03-03T10:40:25;15.03;;;11.00;;
2848;SDS011;59355;52.416;13.412;2023-03-03T10:43:08;18.60;;;11.43;;
2848;SDS011;59355;52.416;13.412;2023-03-03T10:45:45;18.67;;;11.90;;
2848;SDS011;59355;52.416;13.412;2023-03-03T11:02:04;19.73;;;11.13;;
2848;SDS011;59355;52.416;13.412;2023-03-03T11:04:54;15.00;;;9.50;;
2848;SDS011;59355;52.416;13.412;2023-03-03T11:07:34;19.17;;;11.77;;
2848;SDS011;59355;52.416;13.412;2023-03-03T11:10:13;18.63;;;11.43;;
2848;SDS011;59355;52.416;13.412;2023-03-03T11:13:02;16.97;;;11.00;;
2848;SDS011;59355;52.416;13.412;2023-03-03T11:15:38;17.97;;;10.97;;
2848;SDS011;59355;52.416;13.412;2023-03-03T11:20:51;18.53;;;10.80;;
2848;SDS011;59355;52.416;13.412;2023-03-03T11:23:24;22.93;;;12.40;;
2848;SDS011;59355;52.416;13.412;2023-03-03T11:26:03;20.37;;;13.60;;
2848;SDS011;59355;52.416;13.412;2023-03-03T11:28:53;21.50;;;13.30;;
2848;SDS011;59355;52.416;13.412;2023-03-03T11:31:47;19.10;;;13.00;;
2848;SDS011;59355;52.416;13.412;2023-03-03T11:34:56;26.07;;;13.47;;
2848;SDS011;59355;52.416;13.412;2023-03-03T11:37:39;26.20;;;15.30;;
2848;SDS011;59355;52.416;13.412;2023-03-03T11:40:11;23.27;;;13.53;;
2848;SDS011;59355;52.416;13.412;2023-03-03T11:42:46;27.00;;;16.43;;
2848;SDS011;59355;52.416;13.412;2023-03-03T11:45:19;20.03;;;14.37;;
2848;SDS011;59355;52.416;13.412;2023-03-03T11:47:58;30.13;;;15.70;;
2848;SDS011;59355;52.416;13.412;2023-03-03T11:50:30;25.30;;;15.17;;
2848;SDS011;59355;52.416;13.412;2023-03-03T11:55:36;20.40;;;13.80;;
2848;SDS011;59355;52.416;13.412;2023-03-03T12:03:52;25.57;;;13.53;;
2848;SDS011;59355;52.416;13.412;2023-03-03T12:09:25;24.37;;;15.57;;
2848;SDS011;59355;52.416;13.412;2023-03-03T12:12:00;23.90;;;16.30;;
2848;SDS011;59355;52.416;13.412;2023-03-03T12:14:49;23.27;;;15.20;;
2848;SDS011;59355;52.416;13.412;2023-03-03T12:20:17;26.17;;;14.93;;
2848;SDS011;59355;52.416;13.412;2023-03-03T12:23:08;25.63;;;16.40;;
2848;SDS011;59355;52.416;13.412;2023-03-03T12:25:41;24.50;;;15.73;;
2848;SDS011;59355;52.416;13.412;2023-03-03T12:28:09;23.63;;;14.80;;
2848;SDS011;59355;52.416;13.412;2023-03-03T12:33:32;23.17;;;15.27;;
2848;SDS011;59355;52.416;13.412;2023-03-03T12:36:23;26.37;;;16.17;;
2848;SDS011;59355;52.416;13.412;2023-03-03T12:41:39;24.40;;;14.53;;
2848;SDS011;59355;52.416;13.412;2023-03-03T12:44:34;24.10;;;16.83;;
2848;SDS011;59355;52.416;13.412;2023-03-03T12:53:09;24.40;;;16.00;;
2848;SDS011;59355;52.416;13.412;2023-03-03T12:55:45;27.93;;;18.03;;
2848;SDS011;59355;52.416;13.412;2023-03-03T12:58:41;27.03;;;16.63;;
2848;SDS011;59355;52.416;13.412;2023-03-03T13:01:38;26.23;;;16.37;;
2848;SDS011;59355;52.416;13.412;2023-03-03T13:15:41;28.00;;;16.90;;
2848;SDS011;59355;52.416;13.412;2023-03-03T13:21:04;24.90;;;16.80;;
2848;SDS011;59355;52.416;13.412;2023-03-03T13:29:08;26.50;;;18.43;;
2848;SDS011;59355;52.416;13.412;2023-03-03T13:31:42;25.67;;;16.50;;
2848;SDS011;59355;52.416;13.412;2023-03-03T13:34:19;25.17;;;16.33;;
2848;SDS011;59355;52.416;13.412;2023-03-03T13:36:51;34.93;;;18.23;;
2848;SDS011;59355;52.416;13.412;2023-03-03T13:39:24;26.33;;;16.00;;
2848;SDS011;59355;52.416;13.412;2023-03-03T13:41:55;23.77;;;16.87;;
2848;SDS011;59355;52.416;13.412;2023-03-03T13:44:24;24.17;;;15.80;;
2848;SDS011;59355;52.416;13.412;2023-03-03T13:49:59;25.13;;;16.77;;
2848;SDS011;59355;52.416;13.412;2023-03-03T13:52:54;23.47;;;15.17;;
2848;SDS011;59355;52.416;13.412;2023-03-03T13:55:32;26.63;;;15.47;;
2848;SDS011;59355;52.416;13.412;2023-03-03T14:00:46;22.30;;;15.33;;
2848;SDS011;59355;52.416;13.412;2023-03-03T14:06:03;20.97;;;14.93;;
2848;SDS011;59355;52.416;13.412;2023-03-03T14:08:54;21.70;;;15.20;;
2848;SDS011;59355;52.416;13.412;2023-03-03T14:11:45;22.37;;;16.13;;
2848;SDS011;59355;52.416;13.412;2023-03-03T14:16:49;21.17;;;15.27;;
2848;SDS011;59355;52.416;13.412;2023-03-03T14:19:36;20.40;;;15.00;;
2848;SDS011;59355;52.416;13.412;2023-03-03T14:22:13;22.10;;;15.43;;
2848;SDS011;59355;52.416;13.412;2023-03-03T14:25:07;21.87;;;13.83;;
2848;SDS011;59355;52.416;13.412;2023-03-03T14:27:36;21.10;;;14.33;;
2848;SDS011;59355;52.416;13.412;2023-03-03T14:30:33;23.83;;;14.30;;
2848;SDS011;59355;52.416;13.412;2023-03-03T14:33:04;21.30;;;15.10;;
2848;SDS011;59355;52.416;13.412;2023-03-03T14:35:47;22.83;;;14.17;;
2848;SDS011;59355;52.416;13.412;2023-03-03T14:38:16;21.00;;;15.60;;
2848;SDS011;59355;52.416;13.412;2023-03-03T14:40:43;29.07;;;16.33;;
2848;SDS011;59355;52.416;13.412;2023-03-03T14:43:26;22.70;;;15.90;;
2848;SDS011;59355;52.416;13.412;2023-03-03T14:46:14;22.27;;;15.30;;
2848;SDS011;59355;52.416;13.412;2023-03-03T14:48:50;22.90;;;16.27;;
2848;SDS011;59355;52.416;13.412;2023-03-03T14:53:52;24.10;;;16.17;;
2848;SDS011;59355;52.416;13.412;2023-03-03T14:56:22;23.83;;;16.13;;
2848;SDS011;59355;52.416;13.412;2023-03-03T14:58:49;28.17;;;15.33;;
2848;SDS011;59355;52.416;13.412;2023-03-03T15:01:21;18.73;;;14.40;;
2848;SDS011;59355;52.416;13.412;2023-03-03T15:03:58;22.40;;;15.83;;
2848;SDS011;59355;52.416;13.412;2023-03-03T15:06:27;25.20;;;16.87;;
2848;SDS011;59355;52.416;13.412;2023-03-03T15:08:54;21.80;;;14.53;;
2848;SDS011;59355;52.416;13.412;2023-03-03T15:11:24;22.37;;;15.17;;
2848;SDS011;59355;52.416;13.412;2023-03-03T15:13:52;26.53;;;17.97;;
2848;SDS011;59355;52.416;13.412;2023-03-03T15:16:18;22.47;;;14.87;;
2848;SDS011;59355;52.416;13.412;2023-03-03T15:22:03;23.27;;;16.10;;
2848;SDS011;59355;52.416;13.412;2023-03-03T15:24:39;22.33;;;17.50;;
2848;SDS011;59355;52.416;13.412;2023-03-03T15:27:18;24.87;;;17.10;;
2848;SDS011;59355;52.416;13.412;2023-03-03T15:30:14;25.90;;;16.37;;
2848;SDS011;59355;52.416;13.412;2023-03-03T15:35:33;26.83;;;17.20;;
2848;SDS011;59355;52.416;13.412;2023-03-03T15:38:07;19.67;;;15.20;;
2848;SDS011;59355;52.416;13.412;2023-03-03T15:40:43;23.07;;;16.33;;
2848;SDS011;59355;52.416;13.412;2023-03-03T15:43:26;21.63;;;15.60;;
2848;SDS011;59355;52.416;13.412;2023-03-03T15:46:04;21.27;;;15.27;;
2848;SDS011;59355;52.416;13.412;2023-03-03T15:48:40;22.27;;;15.60;;
2848;SDS011;59355;52.416;13.412;2023-03-03T15:55:09;22.33;;;18.13;;
2848;SDS011;59355;52.416;13.412;2023-03-03T15:57:20;22.37;;;15.30;;
2848;SDS011;59355;52.416;13.412;2023-03-03T16:00:00;25.60;;;17.00;;
2848;SDS011;59355;52.416;13.412;2023-03-03T16:11:06;19.30;;;15.07;;
2848;SDS011;59355;52.416;13.412;2023-03-03T16:19:15;17.87;;;14.60;;
2848;SDS011;59355;52.416;13.412;2023-03-03T16:21:59;20.80;;;14.80;;
2848;SDS011;59355;52.416;13.412;2023-03-03T16:24:45;17.13;;;14.03;;
2848;SDS011;59355;52.416;13.412;2023-03-03T16:29:59;21.17;;;14.60;;
2848;SDS011;59355;52.416;13.412;2023-03-03T16:32:43;22.33;;;17.73;;
2848;SDS011;59355;52.416;13.412;2023-03-03T16:35:20;20.90;;;16.07;;
2848;SDS011;59355;52.416;13.412;2023-03-03T16:37:52;22.63;;;16.57;;
2848;SDS011;59355;52.416;13.412;2023-03-03T16:42:56;23.37;;;18.23;;
2848;SDS011;59355;52.416;13.412;2023-03-03T16:45:35;22.33;;;17.57;;
2848;SDS011;59355;52.416;13.412;2023-03-03T16:48:21;25.03;;;16.90;;
2848;SDS011;59355;52.416;13.412;2023-03-03T16:50:58;22.60;;;17.73;;
2848;SDS011;59355;52.416;13.412;2023-03-03T16:53:38;24.83;;;16.90;;
2848;SDS011;59355;52.416;13.412;2023-03-03T16:56:17;24.10;;;18.20;;
2848;SDS011;59355;52.416;13.412;2023-03-03T16:58:52;22.93;;;16.23;;
2848;SDS011;59355;52.416;13.412;2023-03-03T17:01:59;24.13;;;16.97;;
2848;SDS011;59355;52.416;13.412;2023-03-03T17:04:36;26.20;;;17.40;;
2848;SDS011;59355;52.416;13.412;2023-03-03T17:16:04;25.03;;;18.33;;
2848;SDS011;59355;52.416;13.412;2023-03-03T17:18:35;33.40;;;20.10;;
2848;SDS011;59355;52.416;13.412;2023-03-03T17:21:10;29.43;;;19.50;;